Springfield, IL (62704)

9:41 PM CDT on August 20, 2014 (GMT -0500)
Southwest Springfield | Change Station
CLOSE
Current Station
Personal Weather Station
Location: Springfield, IL
Elevation: 607 ft
Nearby Weather Stations
Active Advisory: Special Statement Active Notice: Local Storm Report

Elev 607 ft 39.76 °N, 89.68 °W | Updated 8 seconds ago

Clear
Clear
74.1 °F
Feels Like 72 °F
N
6.9
Wind Variable Wind from East
Gusts 6.9 mph

Today
High -- | Low -- °F
--% Chance of Precip.
Yesterday
High -- | Low -- °F
Precip. -- in
6:15 AM 7:47 PM
Waning Crescent, 17% visible
Pressure 29.94 in
Visibility 10.0 miles
Clouds Clear
Heat Index 72 °F
Dew Point 72 °F
Humidity 94%
Rainfall 2.58 in
Snow Depth Not available.
UV 0 out of 12
Pollen 9.60 out of 12
Ozone Good
PM2.5 Good
Flu Activity Not available.
METAR KSPI 210152Z 18006KT 10SM CLR 24/22 A2995 RMK AO2 SLP139 T02390217

More Conditions Fewer Conditions

Pressure 29.94 in
Visibility 10.0 miles
Clouds Clear
Heat Index 72 °F
Dew Point 72 °F
Humidity 94%
Rainfall 2.58 in
Snow Depth Not available.
UV 0 out of 12
Pollen 9.60 out of 12
Ozone Good
PM2.5 Good
Flu Activity Not available.
METAR KSPI 210152Z 18006KT 10SM CLR 24/22 A2995 RMK AO2 SLP139 T02390217

More Conditions Fewer Conditions

10-Day Weather Forecast

Almanac

Astronomy

Aug. 20, 2014 Rise Set
Actual Time 6:15 AM CDT 7:47 PM CDT
Civil Twilight 5:46 AM CDT 8:16 PM CDT
Nautical Twilight 5:12 AM CDT 8:50 PM CDT
Astronomical Twilight 4:36 AM CDT 9:26 PM CDT
Moon 1:55 AM CDT (8/20) 4:32 PM CDT (8/20)
Length of Visible Light 14h 29m
Length of Day
13h 32m
Tomorrow will be 2m 22s shorter.
Waning Crescent, 17% of the Moon is Illuminated
Today
Waning Crescent
Aug 25
New
Sep 2
First Quarter
Sep 8
Full
Sep 15
Last Quarter

Today's Extremes

State Highs State Lows

Community

WunderPhotos

Upload Photos

1,745,839 photos uploaded!

WunderBlogs® & News

By Dr. Jeff Masters
Director of Meteorology, Weather Underground
By Kari Strenfel
Meteorologist, Weather Underground
By Christopher C. Burt
Weather Historian, Weather Underground
August 20, 2014
August 20, 2014
August 20, 2014

Nearby

Air Quality

  Air Quality AQ Index Pollutant
Yesterday Good
PM2.5
Yesterday Good
OZONE
Current Good
OZONE
Current Good
PM2.5
Wednesday Moderate
PM2.5
Wednesday Good
OZONE
Thursday Moderate
PM2.5
Thursday Good
OZONE

Snow Depth

Station Depth Elevation
No new snow has been reported.

Earthquake Activity

City Distance Mag. Time & Date
No recent earthquake activity has been reported nearby.
Minimum magnitude displayed is 2.5.

Coastal Water Temperatures

Place Temperature
No Stations Reporting

Nearby Weather Stations